sensor_id;sensor_type;location;lat;lon;timestamp;pressure;altitude;pressure_sealevel;temperature;humidity
60832;BME280;46665;51.558;-0.448;2022-08-03T00:01:19;100912.06;;;18.54;94.73
60832;BME280;46665;51.558;-0.448;2022-08-03T00:03:45;100919.50;;;18.53;94.71
60832;BME280;46665;51.558;-0.448;2022-08-03T00:06:10;100909.47;;;18.49;95.36
60832;BME280;46665;51.558;-0.448;2022-08-03T00:08:36;100917.09;;;18.43;95.74
60832;BME280;46665;51.558;-0.448;2022-08-03T00:11:02;100916.28;;;18.42;95.53
60832;BME280;46665;51.558;-0.448;2022-08-03T00:13:28;100913.38;;;18.39;95.70
60832;BME280;46665;51.558;-0.448;2022-08-03T00:15:53;100908.84;;;18.34;96.06
60832;BME280;46665;51.558;-0.448;2022-08-03T00:18:18;100906.91;;;18.35;96.15
60832;BME280;46665;51.558;-0.448;2022-08-03T00:20:44;100913.56;;;18.34;96.46
60832;BME280;46665;51.558;-0.448;2022-08-03T00:23:10;100906.75;;;18.31;96.99
60832;BME280;46665;51.558;-0.448;2022-08-03T00:25:36;100903.03;;;18.36;96.28
60832;BME280;46665;51.558;-0.448;2022-08-03T00:28:03;100910.81;;;18.34;96.23
60832;BME280;46665;51.558;-0.448;2022-08-03T00:30:28;100900.09;;;18.32;96.60
60832;BME280;46665;51.558;-0.448;2022-08-03T00:32:54;100897.50;;;18.27;96.66
60832;BME280;46665;51.558;-0.448;2022-08-03T00:35:20;100901.06;;;18.28;96.70
60832;BME280;46665;51.558;-0.448;2022-08-03T00:37:45;100902.88;;;18.24;96.93
60832;BME280;46665;51.558;-0.448;2022-08-03T00:40:13;100900.44;;;18.22;96.82
60832;BME280;46665;51.558;-0.448;2022-08-03T00:42:49;100892.84;;;18.19;97.04
60832;BME280;46665;51.558;-0.448;2022-08-03T00:45:16;100886.19;;;18.20;97.00
60832;BME280;46665;51.558;-0.448;2022-08-03T00:47:43;100892.53;;;18.21;96.78
60832;BME280;46665;51.558;-0.448;2022-08-03T00:50:08;100888.78;;;18.16;97.38
60832;BME280;46665;51.558;-0.448;2022-08-03T00:52:34;100893.31;;;18.12;97.48
60832;BME280;46665;51.558;-0.448;2022-08-03T00:55:00;100887.31;;;18.10;97.90
60832;BME280;46665;51.558;-0.448;2022-08-03T00:57:29;100895.75;;;18.05;98.17
60832;BME280;46665;51.558;-0.448;2022-08-03T00:59:54;100885.22;;;18.07;98.10
60832;BME280;46665;51.558;-0.448;2022-08-03T01:02:20;100898.84;;;18.04;98.23
60832;BME280;46665;51.558;-0.448;2022-08-03T01:04:46;100889.78;;;18.03;98.11
60832;BME280;46665;51.558;-0.448;2022-08-03T01:07:23;100894.00;;;18.01;98.98
60832;BME280;46665;51.558;-0.448;2022-08-03T01:09:59;100892.38;;;18.00;98.38
60832;BME280;46665;51.558;-0.448;2022-08-03T01:15:28;100904.03;;;17.96;98.63
60832;BME280;46665;51.558;-0.448;2022-08-03T01:18:05;100900.28;;;17.92;99.10
60832;BME280;46665;51.558;-0.448;2022-08-03T01:20:34;100907.25;;;17.90;99.25
60832;BME280;46665;51.558;-0.448;2022-08-03T01:23:19;100905.81;;;17.92;99.19
60832;BME280;46665;51.558;-0.448;2022-08-03T01:31:11;100898.50;;;17.79;100.00
60832;BME280;46665;51.558;-0.448;2022-08-03T01:33:42;100903.19;;;17.79;99.79
60832;BME280;46665;51.558;-0.448;2022-08-03T01:36:17;100903.50;;;17.77;100.00
60832;BME280;46665;51.558;-0.448;2022-08-03T01:38:48;100898.34;;;17.75;100.00
60832;BME280;46665;51.558;-0.448;2022-08-03T01:41:19;100903.03;;;17.75;100.00
60832;BME280;46665;51.558;-0.448;2022-08-03T01:43:47;100905.31;;;17.82;100.00
60832;BME280;46665;51.558;-0.448;2022-08-03T01:46:16;100906.63;;;17.84;100.00
60832;BME280;46665;51.558;-0.448;2022-08-03T01:48:44;100906.63;;;17.84;99.88
60832;BME280;46665;51.558;-0.448;2022-08-03T01:51:10;100910.84;;;17.90;99.47
60832;BME280;46665;51.558;-0.448;2022-08-03T01:53:39;100907.25;;;17.90;99.35
60832;BME280;46665;51.558;-0.448;2022-08-03T01:56:07;100912.16;;;17.93;99.32
60832;BME280;46665;51.558;-0.448;2022-08-03T01:58:34;100906.47;;;17.98;99.32
60832;BME280;46665;51.558;-0.448;2022-08-03T02:01:02;100908.75;;;17.96;99.46
60832;BME280;46665;51.558;-0.448;2022-08-03T02:03:28;100901.13;;;18.02;98.90
60832;BME280;46665;51.558;-0.448;2022-08-03T02:05:57;100901.44;;;18.00;98.89
60832;BME280;46665;51.558;-0.448;2022-08-03T02:08:24;100901.13;;;18.02;99.20
60832;BME280;46665;51.558;-0.448;2022-08-03T02:10:54;100896.75;;;18.01;99.38
60832;BME280;46665;51.558;-0.448;2022-08-03T02:13:22;100895.13;;;18.00;99.10
60832;BME280;46665;51.558;-0.448;2022-08-03T02:15:49;100897.56;;;18.01;99.23
60832;BME280;46665;51.558;-0.448;2022-08-03T02:18:17;100892.38;;;18.00;98.97
60832;BME280;46665;51.558;-0.448;2022-08-03T02:20:43;100883.94;;;18.05;98.99
60832;BME280;46665;51.558;-0.448;2022-08-03T02:23:08;100885.41;;;18.11;97.92
60832;BME280;46665;51.558;-0.448;2022-08-03T02:25:46;100881.34;;;18.08;98.19
60832;BME280;46665;51.558;-0.448;2022-08-03T02:28:18;100878.91;;;18.07;98.41
60832;BME280;46665;51.558;-0.448;2022-08-03T02:30:48;100880.06;;;18.06;98.47
60832;BME280;46665;51.558;-0.448;2022-08-03T02:33:25;100875.38;;;18.06;98.15
60832;BME280;46665;51.558;-0.448;2022-08-03T02:35:53;100872.78;;;18.01;98.88
60832;BME280;46665;51.558;-0.448;2022-08-03T02:38:22;100872.59;;;17.97;98.97
60832;BME280;46665;51.558;-0.448;2022-08-03T02:40:50;100871.13;;;18.00;98.89
60832;BME280;46665;51.558;-0.448;2022-08-03T02:43:20;100873.91;;;18.00;98.87
60832;BME280;46665;51.558;-0.448;2022-08-03T02:45:48;100871.63;;;18.02;98.87
60832;BME280;46665;51.558;-0.448;2022-08-03T02:48:17;100870.03;;;18.01;99.15
60832;BME280;46665;51.558;-0.448;2022-08-03T02:50:45;100854.44;;;18.05;98.85
60832;BME280;46665;51.558;-0.448;2022-08-03T02:53:12;100870.81;;;18.02;98.89
60832;BME280;46665;51.558;-0.448;2022-08-03T02:55:38;100857.72;;;17.98;99.32
60832;BME280;46665;51.558;-0.448;2022-08-03T02:58:05;100849.78;;;17.97;99.90
60832;BME280;46665;51.558;-0.448;2022-08-03T03:00:32;100851.41;;;17.98;99.38
60832;BME280;46665;51.558;-0.448;2022-08-03T03:02:58;100837.47;;;17.94;99.51
60832;BME280;46665;51.558;-0.448;2022-08-03T03:05:25;100841.03;;;17.95;99.93
60832;BME280;46665;51.558;-0.448;2022-08-03T03:07:51;100848.47;;;17.94;100.00
60832;BME280;46665;51.558;-0.448;2022-08-03T03:10:17;100843.94;;;17.98;99.68
60832;BME280;46665;51.558;-0.448;2022-08-03T03:12:43;100846.72;;;17.98;99.75
60832;BME280;46665;51.558;-0.448;2022-08-03T03:15:10;100849.59;;;18.02;99.36
60832;BME280;46665;51.558;-0.448;2022-08-03T03:17:36;100842.16;;;18.03;99.48
60832;BME280;46665;51.558;-0.448;2022-08-03T03:20:02;100848.63;;;18.07;99.14
60832;BME280;46665;51.558;-0.448;2022-08-03T03:22:29;100843.28;;;18.02;99.90
60832;BME280;46665;51.558;-0.448;2022-08-03T03:24:57;100841.03;;;18.04;99.94
60832;BME280;46665;51.558;-0.448;2022-08-03T03:27:24;100839.56;;;18.06;99.75
60832;BME280;46665;51.558;-0.448;2022-08-03T03:29:49;100843.44;;;18.05;100.00
60832;BME280;46665;51.558;-0.448;2022-08-03T03:32:15;100847.97;;;18.10;99.68
60832;BME280;46665;51.558;-0.448;2022-08-03T03:34:41;100840.50;;;18.10;99.49
60832;BME280;46665;51.558;-0.448;2022-08-03T03:37:06;100842.28;;;18.15;99.42
60832;BME280;46665;51.558;-0.448;2022-08-03T03:39:32;100847.47;;;18.16;99.13
60832;BME280;46665;51.558;-0.448;2022-08-03T03:41:59;100845.38;;;18.13;99.24
60832;BME280;46665;51.558;-0.448;2022-08-03T03:44:28;100853.31;;;18.15;99.14
60832;BME280;46665;51.558;-0.448;2022-08-03T03:46:57;100851.84;;;18.17;98.87
60832;BME280;46665;51.558;-0.448;2022-08-03T03:49:23;100856.22;;;18.10;99.44
60832;BME280;46665;51.558;-0.448;2022-08-03T03:51:52;100851.88;;;18.09;99.55
60832;BME280;46665;51.558;-0.448;2022-08-03T03:54:18;100859.47;;;18.12;99.53
60832;BME280;46665;51.558;-0.448;2022-08-03T03:56:43;100860.75;;;18.14;99.23
60832;BME280;46665;51.558;-0.448;2022-08-03T03:59:09;100861.91;;;18.13;99.33
60832;BME280;46665;51.558;-0.448;2022-08-03T04:01:34;100861.09;;;18.13;99.16
60832;BME280;46665;51.558;-0.448;2022-08-03T04:03:59;100855.91;;;18.11;99.62
60832;BME280;46665;51.558;-0.448;2022-08-03T04:06:45;100857.03;;;18.10;99.42
60832;BME280;46665;51.558;-0.448;2022-08-03T04:09:30;100860.63;;;18.11;99.49
60832;BME280;46665;51.558;-0.448;2022-08-03T04:12:15;100865.16;;;18.15;99.20
60832;BME280;46665;51.558;-0.448;2022-08-03T04:14:42;100861.91;;;18.13;99.37
60832;BME280;46665;51.558;-0.448;2022-08-03T04:17:11;100862.72;;;18.14;99.20
60832;BME280;46665;51.558;-0.448;2022-08-03T04:19:46;100855.91;;;18.11;99.64
60832;BME280;46665;51.558;-0.448;2022-08-03T04:22:15;100863.69;;;18.09;99.93
60832;BME280;46665;51.558;-0.448;2022-08-03T04:24:48;100860.44;;;18.07;99.98
60832;BME280;46665;51.558;-0.448;2022-08-03T04:27:18;100861.25;;;18.08;100.00
60832;BME280;46665;51.558;-0.448;2022-08-03T04:29:46;100869.19;;;18.09;100.00
60832;BME280;46665;51.558;-0.448;2022-08-03T04:32:13;100872.59;;;18.15;99.68
60832;BME280;46665;51.558;-0.448;2022-08-03T04:34:39;100876.00;;;18.12;100.00
60832;BME280;46665;51.558;-0.448;2022-08-03T04:37:10;100881.81;;;18.10;100.00
60832;BME280;46665;51.558;-0.448;2022-08-03T04:39:36;100873.56;;;18.10;100.00
60832;BME280;46665;51.558;-0.448;2022-08-03T04:42:05;100877.47;;;18.09;100.00
60832;BME280;46665;51.558;-0.448;2022-08-03T04:44:35;100870.50;;;18.12;100.00
60832;BME280;46665;51.558;-0.448;2022-08-03T04:47:01;100877.31;;;18.06;100.00
60832;BME280;46665;51.558;-0.448;2022-08-03T04:49:28;100876.81;;;18.04;100.00
60832;BME280;46665;51.558;-0.448;2022-08-03T04:51:53;100880.69;;;18.03;100.00
60832;BME280;46665;51.558;-0.448;2022-08-03T04:54:19;100873.75;;;17.96;100.00
60832;BME280;46665;51.558;-0.448;2022-08-03T04:56:44;100877.47;;;18.01;100.00
60832;BME280;46665;51.558;-0.448;2022-08-03T04:59:10;100888.50;;;18.01;100.00
60832;BME280;46665;51.558;-0.448;2022-08-03T05:01:36;100878.59;;;18.00;100.00
60832;BME280;46665;51.558;-0.448;2022-08-03T05:04:02;100888.00;;;17.98;100.00
60832;BME280;46665;51.558;-0.448;2022-08-03T05:06:27;100889.28;;;18.01;100.00
60832;BME280;46665;51.558;-0.448;2022-08-03T05:08:53;100897.22;;;18.03;100.00
60832;BME280;46665;51.558;-0.448;2022-08-03T05:11:19;100894.94;;;18.05;100.00
60832;BME280;46665;51.558;-0.448;2022-08-03T05:13:44;100889.13;;;18.06;100.00
60832;BME280;46665;51.558;-0.448;2022-08-03T05:16:10;100887.66;;;18.09;100.00
60832;BME280;46665;51.558;-0.448;2022-08-03T05:18:36;100886.88;;;18.08;100.00
60832;BME280;46665;51.558;-0.448;2022-08-03T05:21:02;100882.31;;;18.12;100.00
60832;BME280;46665;51.558;-0.448;2022-08-03T05:23:29;100886.53;;;18.10;100.00
60832;BME280;46665;51.558;-0.448;2022-08-03T05:25:54;100890.41;;;18.09;100.00
60832;BME280;46665;51.558;-0.448;2022-08-03T05:28:20;100884.13;;;18.08;100.00
60832;BME280;46665;51.558;-0.448;2022-08-03T05:30:45;100891.22;;;18.09;100.00
60832;BME280;46665;51.558;-0.448;2022-08-03T05:33:11;100888.47;;;18.09;100.00
60832;BME280;46665;51.558;-0.448;2022-08-03T05:35:36;100886.69;;;18.13;100.00
60832;BME280;46665;51.558;-0.448;2022-08-03T05:38:04;100896.41;;;18.19;100.00
60832;BME280;46665;51.558;-0.448;2022-08-03T05:40:30;100899.16;;;18.19;100.00
60832;BME280;46665;51.558;-0.448;2022-08-03T05:42:56;100899.50;;;18.18;100.00
60832;BME280;46665;51.558;-0.448;2022-08-03T05:45:23;100892.19;;;18.22;100.00
60832;BME280;46665;51.558;-0.448;2022-08-03T05:47:48;100896.22;;;18.25;100.00
60832;BME280;46665;51.558;-0.448;2022-08-03T05:50:16;100892.19;;;18.31;100.00
60832;BME280;46665;51.558;-0.448;2022-08-03T05:52:42;100898.97;;;18.33;100.00
60832;BME280;46665;51.558;-0.448;2022-08-03T05:55:09;100899.44;;;18.35;100.00
60832;BME280;46665;51.558;-0.448;2022-08-03T05:57:35;100895.69;;;18.40;100.00
60832;BME280;46665;51.558;-0.448;2022-08-03T06:00:04;100891.84;;;18.41;100.00
60832;BME280;46665;51.558;-0.448;2022-08-03T06:02:30;100900.91;;;18.41;100.00
60832;BME280;46665;51.558;-0.448;2022-08-03T06:04:55;100892.47;;;18.47;100.00
60832;BME280;46665;51.558;-0.448;2022-08-03T06:07:21;100898.63;;;18.44;100.00
60832;BME280;46665;51.558;-0.448;2022-08-03T06:09:47;100891.47;;;18.51;100.00
60832;BME280;46665;51.558;-0.448;2022-08-03T06:12:12;100892.59;;;18.50;100.00
60832;BME280;46665;51.558;-0.448;2022-08-03T06:14:37;100891.31;;;18.56;100.00
60832;BME280;46665;51.558;-0.448;2022-08-03T06:17:03;100887.22;;;18.62;100.00
60832;BME280;46665;51.558;-0.448;2022-08-03T06:19:28;100900.00;;;18.67;100.00
60832;BME280;46665;51.558;-0.448;2022-08-03T06:21:53;100904.06;;;18.70;100.00
60832;BME280;46665;51.558;-0.448;2022-08-03T06:24:19;100895.78;;;18.70;100.00
60832;BME280;46665;51.558;-0.448;2022-08-03T06:26:44;100883.97;;;18.69;100.00
60832;BME280;46665;51.558;-0.448;2022-08-03T06:29:10;100892.84;;;18.75;99.59
60832;BME280;46665;51.558;-0.448;2022-08-03T06:31:35;100891.56;;;18.72;100.00
60832;BME280;46665;51.558;-0.448;2022-08-03T06:34:03;100892.03;;;18.74;100.00
60832;BME280;46665;51.558;-0.448;2022-08-03T06:36:28;100898.69;;;18.73;100.00
60832;BME280;46665;51.558;-0.448;2022-08-03T06:38:59;100899.69;;;18.77;99.99
60832;BME280;46665;51.558;-0.448;2022-08-03T06:41:27;100899.50;;;18.82;100.00
60832;BME280;46665;51.558;-0.448;2022-08-03T06:43:53;100891.34;;;18.86;99.48
60832;BME280;46665;51.558;-0.448;2022-08-03T06:46:19;100897.72;;;18.87;99.88
60832;BME280;46665;51.558;-0.448;2022-08-03T06:48:44;100894.47;;;18.84;99.72
60832;BME280;46665;51.558;-0.448;2022-08-03T06:51:10;100908.38;;;18.88;99.80
60832;BME280;46665;51.558;-0.448;2022-08-03T06:53:36;100893.81;;;18.88;99.43
60832;BME280;46665;51.558;-0.448;2022-08-03T06:56:03;100895.09;;;18.90;99.69
60832;BME280;46665;51.558;-0.448;2022-08-03T06:58:29;100897.19;;;18.93;99.95
60832;BME280;46665;51.558;-0.448;2022-08-03T07:00:54;100897.19;;;18.93;99.91
60832;BME280;46665;51.558;-0.448;2022-08-03T07:03:20;100904.44;;;18.98;99.69
60832;BME280;46665;51.558;-0.448;2022-08-03T07:05:45;100904.63;;;18.93;99.88
60832;BME280;46665;51.558;-0.448;2022-08-03T07:08:12;100903.34;;;18.90;100.00
60832;BME280;46665;51.558;-0.448;2022-08-03T07:10:37;100906.13;;;18.90;100.00
60832;BME280;46665;51.558;-0.448;2022-08-03T07:13:03;100916.63;;;18.97;100.00
60832;BME280;46665;51.558;-0.448;2022-08-03T07:15:29;100909.66;;;18.99;100.00
60832;BME280;46665;51.558;-0.448;2022-08-03T07:17:55;100915.97;;;19.00;100.00
60832;BME280;46665;51.558;-0.448;2022-08-03T07:20:21;100913.88;;;18.97;100.00
60832;BME280;46665;51.558;-0.448;2022-08-03T07:22:46;100908.56;;;18.92;100.00
60832;BME280;46665;51.558;-0.448;2022-08-03T07:25:13;100899.78;;;18.90;100.00
60832;BME280;46665;51.558;-0.448;2022-08-03T07:27:42;100912.44;;;18.91;100.00
60832;BME280;46665;51.558;-0.448;2022-08-03T07:30:08;100904.63;;;18.93;100.00
60832;BME280;46665;51.558;-0.448;2022-08-03T07:32:34;100912.41;;;18.99;100.00
60832;BME280;46665;51.558;-0.448;2022-08-03T07:34:59;100909.66;;;18.99;100.00
60832;BME280;46665;51.558;-0.448;2022-08-03T07:37:25;100917.09;;;18.99;100.00
60832;BME280;46665;51.558;-0.448;2022-08-03T07:39:50;100908.19;;;19.02;100.00
60832;BME280;46665;51.558;-0.448;2022-08-03T07:42:16;100920.00;;;19.02;100.00
60832;BME280;46665;51.558;-0.448;2022-08-03T07:44:41;100916.59;;;19.05;100.00
60832;BME280;46665;51.558;-0.448;2022-08-03T07:47:07;100915.59;;;19.10;100.00
60832;BME280;46665;51.558;-0.448;2022-08-03T07:49:32;100917.38;;;19.15;100.00
60832;BME280;46665;51.558;-0.448;2022-08-03T07:51:58;100906.94;;;19.20;99.98
60832;BME280;46665;51.558;-0.448;2022-08-03T07:54:42;100913.41;;;19.24;99.64
60832;BME280;46665;51.558;-0.448;2022-08-03T07:57:07;100918.56;;;19.35;99.54
60832;BME280;46665;51.558;-0.448;2022-08-03T07:59:33;100917.69;;;19.43;98.67
60832;BME280;46665;51.558;-0.448;2022-08-03T08:01:59;100908.84;;;19.49;98.19
60832;BME280;46665;51.558;-0.448;2022-08-03T08:04:25;100910.63;;;19.54;97.48
60832;BME280;46665;51.558;-0.448;2022-08-03T08:06:50;100920.84;;;19.54;97.36
60832;BME280;46665;51.558;-0.448;2022-08-03T08:09:15;100914.84;;;19.52;97.19
60832;BME280;46665;51.558;-0.448;2022-08-03T08:11:41;100914.53;;;19.53;97.22
60832;BME280;46665;51.558;-0.448;2022-08-03T08:14:07;100918.41;;;19.52;97.26
60832;BME280;46665;51.558;-0.448;2022-08-03T08:16:33;100904.09;;;19.59;97.63
60832;BME280;46665;51.558;-0.448;2022-08-03T08:18:58;100913.81;;;19.65;97.38
60832;BME280;46665;51.558;-0.448;2022-08-03T08:21:24;100920.78;;;19.71;96.09
60832;BME280;46665;51.558;-0.448;2022-08-03T08:23:49;100913.75;;;19.74;96.07
60832;BME280;46665;51.558;-0.448;2022-08-03T08:26:15;100912.88;;;19.82;96.33
60832;BME280;46665;51.558;-0.448;2022-08-03T08:28:40;100908.09;;;19.91;95.16
60832;BME280;46665;51.558;-0.448;2022-08-03T08:31:06;100917.94;;;20.01;94.43
60832;BME280;46665;51.558;-0.448;2022-08-03T08:33:32;100910.25;;;20.06;94.43
60832;BME280;46665;51.558;-0.448;2022-08-03T08:35:58;100904.19;;;20.13;93.96
60832;BME280;46665;51.558;-0.448;2022-08-03T08:38:24;100907.88;;;20.17;92.76
60832;BME280;46665;51.558;-0.448;2022-08-03T08:40:50;100898.69;;;20.25;91.72
60832;BME280;46665;51.558;-0.448;2022-08-03T08:43:16;100904.34;;;20.29;91.55
60832;BME280;46665;51.558;-0.448;2022-08-03T08:45:41;100914.03;;;20.35;91.88
60832;BME280;46665;51.558;-0.448;2022-08-03T08:48:08;100907.22;;;20.32;91.06
60832;BME280;46665;51.558;-0.448;2022-08-03T08:50:36;100901.16;;;20.39;91.20
60832;BME280;46665;51.558;-0.448;2022-08-03T08:53:03;100900.56;;;20.46;90.29
60832;BME280;46665;51.558;-0.448;2022-08-03T08:55:32;100903.34;;;20.46;90.53
60832;BME280;46665;51.558;-0.448;2022-08-03T08:58:02;100897.63;;;20.51;90.42
60832;BME280;46665;51.558;-0.448;2022-08-03T09:00:29;100904.22;;;20.59;89.78
60832;BME280;46665;51.558;-0.448;2022-08-03T09:02:55;100905.16;;;20.63;89.64
60832;BME280;46665;51.558;-0.448;2022-08-03T09:05:21;100898.13;;;20.65;89.95
60832;BME280;46665;51.558;-0.448;2022-08-03T09:07:47;100901.25;;;20.64;88.97
60832;BME280;46665;51.558;-0.448;2022-08-03T09:10:15;100908.03;;;20.66;88.48
60832;BME280;46665;51.558;-0.448;2022-08-03T09:12:48;100904.81;;;20.64;88.61
60832;BME280;46665;51.558;-0.448;2022-08-03T09:15:25;100897.44;;;20.68;88.09
60832;BME280;46665;51.558;-0.448;2022-08-03T09:17:56;100897.56;;;20.72;88.07
60832;BME280;46665;51.558;-0.448;2022-08-03T09:20:24;100895.94;;;20.71;88.51
60832;BME280;46665;51.558;-0.448;2022-08-03T09:25:35;100899.50;;;20.84;87.46
60832;BME280;46665;51.558;-0.448;2022-08-03T09:28:10;100901.16;;;20.85;87.73
60832;BME280;46665;51.558;-0.448;2022-08-03T09:30:38;100903.00;;;20.93;87.26
60832;BME280;46665;51.558;-0.448;2022-08-03T09:33:09;100888.94;;;20.98;87.71
60832;BME280;46665;51.558;-0.448;2022-08-03T09:35:53;100893.66;;;20.97;86.98
60832;BME280;46665;51.558;-0.448;2022-08-03T09:38:22;100897.13;;;20.94;86.62
60832;BME280;46665;51.558;-0.448;2022-08-03T09:40:51;100890.09;;;20.97;86.28
60832;BME280;46665;51.558;-0.448;2022-08-03T09:43:17;100885.94;;;21.03;86.79
60832;BME280;46665;51.558;-0.448;2022-08-03T09:45:43;100894.81;;;21.09;86.25
60832;BME280;46665;51.558;-0.448;2022-08-03T09:48:24;100899.06;;;21.18;85.78
60832;BME280;46665;51.558;-0.448;2022-08-03T09:50:53;100893.19;;;21.20;85.58
60832;BME280;46665;51.558;-0.448;2022-08-03T09:53:19;100887.06;;;21.27;85.60
60832;BME280;46665;51.558;-0.448;2022-08-03T09:56:01;100889.97;;;21.30;85.20
60832;BME280;46665;51.558;-0.448;2022-08-03T09:58:28;100892.94;;;21.37;85.42
60832;BME280;46665;51.558;-0.448;2022-08-03T10:01:04;100890.31;;;21.41;85.21
60832;BME280;46665;51.558;-0.448;2022-08-03T10:03:36;100892.38;;;21.44;84.90
60832;BME280;46665;51.558;-0.448;2022-08-03T10:06:18;100894.09;;;21.49;83.92
60832;BME280;46665;51.558;-0.448;2022-08-03T10:08:45;100891.34;;;21.49;84.88
60832;BME280;46665;51.558;-0.448;2022-08-03T10:11:11;100892.34;;;21.56;84.66
60832;BME280;46665;51.558;-0.448;2022-08-03T10:13:37;100891.66;;;21.59;84.38
60832;BME280;46665;51.558;-0.448;2022-08-03T10:16:03;100894.31;;;21.68;84.05
60832;BME280;46665;51.558;-0.448;2022-08-03T10:18:30;100886.09;;;21.72;84.01
60832;BME280;46665;51.558;-0.448;2022-08-03T10:21:03;100892.19;;;21.77;83.79
60832;BME280;46665;51.558;-0.448;2022-08-03T10:23:37;100880.72;;;21.91;83.43
60832;BME280;46665;51.558;-0.448;2022-08-03T10:26:06;100886.09;;;22.00;82.29
60832;BME280;46665;51.558;-0.448;2022-08-03T10:28:39;100881.72;;;21.99;82.17
60832;BME280;46665;51.558;-0.448;2022-08-03T10:31:07;100886.47;;;21.98;82.73
60832;BME280;46665;51.558;-0.448;2022-08-03T10:33:41;100886.81;;;21.97;82.19
60832;BME280;46665;51.558;-0.448;2022-08-03T10:36:07;100883.69;;;21.98;82.82
60832;BME280;46665;51.558;-0.448;2022-08-03T10:38:39;100890.03;;;21.99;82.71
60832;BME280;46665;51.558;-0.448;2022-08-03T10:41:08;100884.56;;;22.02;82.84
60832;BME280;46665;51.558;-0.448;2022-08-03T10:46:20;100888.97;;;22.03;81.70
60832;BME280;46665;51.558;-0.448;2022-08-03T10:48:47;100892.63;;;22.07;81.95
60832;BME280;46665;51.558;-0.448;2022-08-03T10:51:14;100891.03;;;22.06;81.48
60832;BME280;46665;51.558;-0.448;2022-08-03T10:53:41;100891.59;;;22.12;81.45
60832;BME280;46665;51.558;-0.448;2022-08-03T10:59:18;100890.19;;;22.18;81.14
60832;BME280;46665;51.558;-0.448;2022-08-03T11:01:52;100889.72;;;22.16;80.91
60832;BME280;46665;51.558;-0.448;2022-08-03T11:04:19;100885.44;;;22.19;80.57
60832;BME280;46665;51.558;-0.448;2022-08-03T11:06:45;100888.34;;;22.22;80.66
60832;BME280;46665;51.558;-0.448;2022-08-03T11:09:13;100889.59;;;22.25;80.63
60832;BME280;46665;51.558;-0.448;2022-08-03T11:11:40;100878.69;;;22.32;80.19
60832;BME280;46665;51.558;-0.448;2022-08-03T11:14:20;100881.56;;;22.36;79.97
60832;BME280;46665;51.558;-0.448;2022-08-03T11:16:48;100881.31;;;22.41;79.12
60832;BME280;46665;51.558;-0.448;2022-08-03T11:19:18;100878.72;;;22.48;80.29
60832;BME280;46665;51.558;-0.448;2022-08-03T11:30:03;100891.25;;;22.58;78.68
60832;BME280;46665;51.558;-0.448;2022-08-03T11:45:36;100885.63;;;22.54;78.75
60832;BME280;46665;51.558;-0.448;2022-08-03T11:48:13;100891.25;;;22.58;78.32
60832;BME280;46665;51.558;-0.448;2022-08-03T11:50:39;100884.97;;;22.61;78.65
60832;BME280;46665;51.558;-0.448;2022-08-03T11:53:06;100888.59;;;22.61;77.89
60832;BME280;46665;51.558;-0.448;2022-08-03T11:55:31;100885.88;;;22.65;77.88
60832;BME280;46665;51.558;-0.448;2022-08-03T11:57:58;100888.66;;;22.65;77.63
60832;BME280;46665;51.558;-0.448;2022-08-03T12:00:31;100881.66;;;22.71;77.81
60832;BME280;46665;51.558;-0.448;2022-08-03T12:03:02;100880.97;;;22.74;77.21
60832;BME280;46665;51.558;-0.448;2022-08-03T12:08:07;100889.09;;;22.83;77.08
60832;BME280;46665;51.558;-0.448;2022-08-03T12:10:33;100885.00;;;22.77;77.10
60832;BME280;46665;51.558;-0.448;2022-08-03T12:13:00;100895.66;;;22.75;77.10
60832;BME280;46665;51.558;-0.448;2022-08-03T12:15:28;100892.06;;;22.74;77.46
60832;BME280;46665;51.558;-0.448;2022-08-03T12:17:55;100898.88;;;22.77;77.51
60832;BME280;46665;51.558;-0.448;2022-08-03T12:20:24;100886.69;;;22.81;77.13
60832;BME280;46665;51.558;-0.448;2022-08-03T12:22:49;100889.28;;;22.90;76.16
60832;BME280;46665;51.558;-0.448;2022-08-03T12:25:25;100894.06;;;23.05;76.69
60832;BME280;46665;51.558;-0.448;2022-08-03T12:27:53;100893.84;;;23.14;76.39
60832;BME280;46665;51.558;-0.448;2022-08-03T12:30:27;100893.66;;;23.23;75.10
60832;BME280;46665;51.558;-0.448;2022-08-03T12:32:53;100893.28;;;23.24;74.07
60832;BME280;46665;51.558;-0.448;2022-08-03T12:35:23;100888.69;;;23.32;75.08
60832;BME280;46665;51.558;-0.448;2022-08-03T12:37:50;100889.31;;;23.41;74.57
60832;BME280;46665;51.558;-0.448;2022-08-03T12:40:26;100884.16;;;23.40;73.33
60832;BME280;46665;51.558;-0.448;2022-08-03T12:42:51;100889.59;;;23.36;73.38
60832;BME280;46665;51.558;-0.448;2022-08-03T12:45:27;100888.28;;;23.30;74.20
60832;BME280;46665;51.558;-0.448;2022-08-03T12:47:56;100891.75;;;23.27;74.83
60832;BME280;46665;51.558;-0.448;2022-08-03T12:50:33;100885.63;;;23.18;75.15
60832;BME280;46665;51.558;-0.448;2022-08-03T12:53:08;100889.66;;;23.20;75.57
60832;BME280;46665;51.558;-0.448;2022-08-03T12:55:36;100890.72;;;23.15;75.26
60832;BME280;46665;51.558;-0.448;2022-08-03T12:58:05;100886.34;;;23.14;75.59
60832;BME280;46665;51.558;-0.448;2022-08-03T13:00:31;100888.84;;;23.20;75.68
60832;BME280;46665;51.558;-0.448;2022-08-03T13:03:05;100889.19;;;23.18;75.40
60832;BME280;46665;51.558;-0.448;2022-08-03T13:05:44;100892.69;;;23.15;75.41
60832;BME280;46665;51.558;-0.448;2022-08-03T13:08:23;100873.44;;;23.22;75.76
60832;BME280;46665;51.558;-0.448;2022-08-03T13:10:50;100882.72;;;23.30;74.39
60832;BME280;46665;51.558;-0.448;2022-08-03T13:13:15;100884.25;;;23.27;75.30
60832;BME280;46665;51.558;-0.448;2022-08-03T13:15:41;100870.28;;;23.24;74.51
60832;BME280;46665;51.558;-0.448;2022-08-03T13:18:07;100883.28;;;23.20;75.02
60832;BME280;46665;51.558;-0.448;2022-08-03T13:20:33;100874.97;;;23.20;75.47
60832;BME280;46665;51.558;-0.448;2022-08-03T13:22:59;100872.03;;;23.12;75.68